Time;durP1;ratioP1;P1;durP2;ratioP2;P2;SDS_P1;SDS_P2;PMS_P1;PMS_P2;Temp;Humidity;BMP_temperature;BMP_pressure;BME280_temperature;BME280_humidity;BME280_pressure;Samples;Min_cycle;Max_cycle;Signal;HPM_P1;HPM_P2
2024/01/22 00:02:33;;;;;;;4.47;2.60;;;;;;;-4.74;97.27;101277.59;10319027;28;20042;-68
2024/01/22 00:07:36;;;;;;;6.05;3.03;;;;;;;-4.71;97.30;101270.06;10308505;28;20061;-69
2024/01/22 00:12:39;;;;;;;4.10;2.90;;;;;;;-4.72;96.48;101264.88;10318930;28;20414;-69
2024/01/22 00:17:41;;;;;;;4.40;2.72;;;;;;;-4.73;96.95;101257.84;10328399;28;20038;-68
2024/01/22 00:22:43;;;;;;;5.32;2.42;;;;;;;-4.74;96.61;101256.19;10318861;28;20046;-69
2024/01/22 00:27:46;;;;;;;4.97;2.80;;;;;;;-4.74;96.61;101253.50;10318809;28;20042;-69
2024/01/22 00:32:48;;;;;;;3.92;2.63;;;;;;;-4.80;96.42;101230.91;10317114;28;20046;-67
2024/01/22 00:37:50;;;;;;;6.07;3.13;;;;;;;-4.79;96.61;101229.09;10316540;28;20063;-68
2024/01/22 00:42:53;;;;;;;5.53;2.40;;;;;;;-4.80;96.27;101230.09;10306660;28;20034;-68
2024/01/22 00:47:56;;;;;;;6.15;3.10;;;;;;;-4.80;96.51;101249.66;10318998;28;20148;-68
2024/01/22 00:52:58;;;;;;;6.03;2.92;;;;;;;-4.81;96.28;101253.34;10322398;28;20635;-68
2024/01/22 00:58:00;;;;;;;5.38;2.80;;;;;;;-4.80;96.17;101246.97;10301911;28;20047;-68
2024/01/22 01:03:03;;;;;;;5.53;2.78;;;;;;;-4.79;96.13;101221.88;10306188;28;20039;-68
2024/01/22 01:08:05;;;;;;;7.13;3.33;;;;;;;-4.82;95.76;101218.72;10318386;28;20054;-68
2024/01/22 01:13:08;;;;;;;5.93;3.30;;;;;;;-4.83;95.93;101206.34;10317455;28;20030;-68
2024/01/22 01:18:12;;;;;;;6.05;3.03;;;;;;;-4.87;96.05;101208.47;10317916;28;20510;-69
2024/01/22 01:23:14;;;;;;;5.95;3.28;;;;;;;-4.88;95.67;101201.47;10324421;28;20043;-68
2024/01/22 01:28:16;;;;;;;5.25;3.17;;;;;;;-4.92;95.70;101197.44;10303165;28;20038;-69
2024/01/22 01:33:19;;;;;;;5.22;2.80;;;;;;;-4.98;94.98;101193.63;10318662;28;20070;-68
2024/01/22 01:38:21;;;;;;;5.65;2.80;;;;;;;-4.99;94.70;101175.03;10317319;28;20049;-67
2024/01/22 01:43:23;;;;;;;8.02;4.00;;;;;;;-5.01;94.86;101179.72;10307857;28;20042;-68
2024/01/22 01:48:26;;;;;;;6.57;3.55;;;;;;;-5.04;94.75;101166.66;10318158;28;20101;-68
2024/01/22 01:53:29;;;;;;;7.63;4.00;;;;;;;-5.06;94.65;101155.28;10319445;28;20125;-68
2024/01/22 01:58:32;;;;;;;8.25;4.05;;;;;;;-5.09;94.75;101161.81;10305759;28;20043;-68
2024/01/22 02:03:35;;;;;;;7.22;3.95;;;;;;;-5.07;94.75;101150.94;10308723;28;20043;-68
2024/01/22 02:08:38;;;;;;;7.63;3.65;;;;;;;-5.01;94.33;101152.97;10322687;28;20097;-69
2024/01/22 02:13:40;;;;;;;7.15;3.83;;;;;;;-5.01;93.99;101139.59;10322157;28;20038;-68
2024/01/22 02:18:43;;;;;;;8.77;3.75;;;;;;;-5.05;94.10;101138.22;10306565;28;20046;-68
2024/01/22 02:23:45;;;;;;;6.38;4.10;;;;;;;-5.08;93.60;101146.59;10297443;28;20039;-69
2024/01/22 02:28:48;;;;;;;7.30;3.40;;;;;;;-5.08;93.36;101125.19;10323908;28;20038;-69
2024/01/22 02:33:50;;;;;;;5.13;3.83;;;;;;;-5.02;93.44;101128.06;10324978;28;20478;-69
2024/01/22 02:38:53;;;;;;;9.35;4.13;;;;;;;-5.09;93.24;101115.50;10333144;28;20054;-68
2024/01/22 02:43:55;;;;;;;7.55;3.95;;;;;;;-5.17;93.49;101109.16;10325402;28;20134;-69
2024/01/22 02:48:58;;;;;;;6.63;3.78;;;;;;;-5.21;93.56;101126.56;10324834;28;20045;-68
2024/01/22 02:54:00;;;;;;;7.93;3.95;;;;;;;-5.28;93.12;101109.47;10318610;28;22069;-69
2024/01/22 02:59:03;;;;;;;8.80;4.55;;;;;;;-5.29;93.59;101109.66;10322894;28;20039;-69
2024/01/22 03:04:07;;;;;;;7.50;3.92;;;;;;;-5.32;93.60;101089.41;10303344;28;20051;-68
2024/01/22 03:09:09;;;;;;;10.10;4.00;;;;;;;-5.29;93.54;101091.75;10288113;28;20046;-68
2024/01/22 03:14:12;;;;;;;9.48;4.10;;;;;;;-5.31;93.34;101088.41;10324586;28;20046;-68
2024/01/22 03:19:14;;;;;;;7.13;3.42;;;;;;;-5.37;92.98;101083.75;10322342;28;20049;-68
2024/01/22 03:24:17;;;;;;;6.78;3.45;;;;;;;-5.41;93.05;101084.22;10319450;28;20038;-67
2024/01/22 03:29:20;;;;;;;8.57;3.92;;;;;;;-5.48;93.07;101086.72;10329739;28;20046;-69
2024/01/22 03:34:23;;;;;;;8.43;3.88;;;;;;;-5.47;93.08;101070.53;10303171;28;20042;-70
2024/01/22 03:39:26;;;;;;;7.15;3.95;;;;;;;-5.48;93.28;101063.50;10321909;28;20576;-69
2024/01/22 03:44:29;;;;;;;4.85;3.17;;;;;;;-5.50;93.13;101057.50;10303575;28;20102;-68
2024/01/22 03:49:32;;;;;;;7.05;3.00;;;;;;;-5.51;93.01;101045.13;10319268;28;21606;-70
2024/01/22 03:54:35;;;;;;;3.17;1.65;;;;;;;-5.55;93.21;101029.59;10316915;28;20049;-70
2024/01/22 03:59:38;;;;;;;2.47;1.60;;;;;;;-5.53;92.47;101022.25;10299886;28;20030;-69
2024/01/22 04:04:41;;;;;;;3.22;2.58;;;;;;;-5.53;92.27;101006.19;10315818;28;20054;-69
2024/01/22 04:09:46;;;;;;;3.50;2.20;;;;;;;-5.49;92.38;101003.00;10308205;28;20049;-72
2024/01/22 04:14:49;;;;;;;5.80;2.47;;;;;;;-5.43;92.34;100966.72;10318008;28;20046;-72
2024/01/22 04:19:51;;;;;;;1.52;1.40;;;;;;;-5.35;92.00;100982.78;10321273;28;20043;-67
2024/01/22 04:24:54;;;;;;;3.72;2.28;;;;;;;-5.30;92.09;100987.63;10321036;28;20862;-71
2024/01/22 04:29:57;;;;;;;6.22;2.70;;;;;;;-5.29;91.68;100987.44;10320624;28;20038;-70
2024/01/22 04:35:01;;;;;;;3.47;2.90;;;;;;;-5.24;91.94;100978.91;10317896;28;20514;-71
2024/01/22 04:40:14;;;;;;;5.30;3.05;;;;;;;-5.19;91.99;100969.38;10304036;28;20050;-71
2024/01/22 04:45:17;;;;;;;3.42;1.95;;;;;;;-5.17;91.76;100947.81;10320695;28;20039;-71
2024/01/22 04:50:20;;;;;;;5.30;2.72;;;;;;;-5.18;91.69;100948.81;10317789;28;20038;-70
2024/01/22 04:55:22;;;;;;;7.00;2.08;;;;;;;-5.23;91.90;100941.28;10319709;28;20039;-70
2024/01/22 05:00:25;;;;;;;2.03;1.75;;;;;;;-5.24;92.03;100934.25;10316648;28;20035;-71
2024/01/22 05:05:28;;;;;;;7.38;2.47;;;;;;;-5.23;92.45;100927.91;10282596;28;20051;-71
2024/01/22 05:10:31;;;;;;;5.95;2.88;;;;;;;-5.21;92.93;100920.56;10316874;28;20049;-71
2024/01/22 05:15:34;;;;;;;4.40;2.85;;;;;;;-5.27;93.23;100893.66;10316724;28;20035;-70
2024/01/22 05:20:37;;;;;;;5.25;2.92;;;;;;;-5.25;93.19;100872.91;10316175;28;20426;-71
2024/01/22 05:25:40;;;;;;;3.50;2.05;;;;;;;-5.20;93.65;100879.44;10319201;28;20050;-71
2024/01/22 05:30:44;;;;;;;3.42;2.47;;;;;;;-5.21;93.63;100869.75;10305198;28;20457;-71
2024/01/22 05:35:47;;;;;;;10.30;2.97;;;;;;;-5.15;93.97;100862.88;10324259;28;20042;-72
2024/01/22 05:40:50;;;;;;;6.78;3.00;;;;;;;-5.04;93.88;100864.31;10310618;28;20054;-71
2024/01/22 05:45:54;;;;;;;8.05;3.58;;;;;;;-4.99;94.06;100852.09;10288356;28;20047;-72
2024/01/22 05:50:56;;;;;;;7.35;3.80;;;;;;;-5.00;94.10;100845.06;10322358;28;20422;-70
2024/01/22 05:55:59;;;;;;;4.05;2.67;;;;;;;-4.97;94.18;100828.66;10307447;28;20577;-70
2024/01/22 06:01:02;;;;;;;6.65;4.47;;;;;;;-4.91;95.00;100808.38;10323997;28;20094;-71
2024/01/22 06:06:05;;;;;;;2.47;1.73;;;;;;;-4.87;95.02;100809.69;10321109;28;20129;-72
2024/01/22 06:11:07;;;;;;;2.33;1.60;;;;;;;-4.80;95.30;100796.44;10321204;28;20483;-72
2024/01/22 06:16:14;;;;;;;3.78;2.50;;;;;;;-4.78;95.36;100784.56;10323949;28;20069;-70
2024/01/22 06:21:16;;;;;;;6.05;2.13;;;;;;;-4.73;95.80;100790.19;10323578;28;20042;-71
2024/01/22 06:26:23;;;;;;;7.38;2.95;;;;;;;-4.70;95.50;100765.75;10322617;28;20584;-71
2024/01/22 06:31:26;;;;;;;8.13;3.50;;;;;;;-4.64;95.66;100765.03;10322574;28;20066;-71
2024/01/22 06:36:29;;;;;;;3.85;2.17;;;;;;;-4.59;95.89;100764.50;10289237;28;20045;-70
2024/01/22 06:41:32;;;;;;;6.22;3.60;;;;;;;-4.54;96.02;100775.50;10321276;28;20043;-70
2024/01/22 06:46:35;;;;;;;6.55;2.83;;;;;;;-4.51;96.46;100755.56;10303762;28;20031;-70
2024/01/22 06:51:38;;;;;;;2.72;1.75;;;;;;;-4.45;96.39;100762.88;10323401;28;20030;-71
2024/01/22 06:56:41;;;;;;;6.60;3.38;;;;;;;-4.38;96.57;100745.06;10323487;28;20038;-71
2024/01/22 07:01:43;;;;;;;4.78;1.92;;;;;;;-4.30;96.58;100745.00;10322532;28;20042;-70
2024/01/22 07:06:46;;;;;;;2.85;2.45;;;;;;;-4.28;97.00;100738.44;10303872;28;20046;-69
2024/01/22 07:11:49;;;;;;;4.65;3.13;;;;;;;-4.20;97.05;100724.13;10320899;28;20038;-71
2024/01/22 07:16:51;;;;;;;5.75;2.35;;;;;;;-4.11;97.14;100712.31;10321474;28;20046;-71
2024/01/22 07:21:54;;;;;;;4.22;2.65;;;;;;;-3.99;96.84;100699.31;10320995;28;20053;-71
2024/01/22 07:26:56;;;;;;;4.22;2.13;;;;;;;-3.91;96.61;100690.31;10321643;28;20058;-72
2024/01/22 07:31:58;;;;;;;2.95;2.15;;;;;;;-3.83;96.40;100698.25;10320844;28;20049;-71
2024/01/22 07:37:01;;;;;;;2.75;1.98;;;;;;;-3.73;96.08;100672.00;10320981;28;20039;-69
2024/01/22 07:42:03;;;;;;;3.45;2.45;;;;;;;-3.66;96.21;100672.91;10320882;28;20089;-69
2024/01/22 07:47:05;;;;;;;3.60;2.22;;;;;;;-3.60;95.58;100668.66;10321595;28;20043;-70
2024/01/22 07:52:08;;;;;;;3.95;2.45;;;;;;;-3.55;95.16;100661.72;10320314;28;20039;-70
2024/01/22 07:57:10;;;;;;;3.03;2.35;;;;;;;-3.52;95.53;100650.59;10319757;28;20446;-71
2024/01/22 08:02:13;;;;;;;1.50;1.38;;;;;;;-3.47;95.51;100650.00;10303314;28;20047;-71
2024/01/22 08:07:15;;;;;;;2.08;1.50;;;;;;;-3.43;95.22;100648.63;10319517;28;20082;-70
2024/01/22 08:12:18;;;;;;;3.70;2.40;;;;;;;-3.40;95.35;100642.91;10321909;28;20053;-70
2024/01/22 08:17:20;;;;;;;2.85;2.55;;;;;;;-3.37;94.85;100615.69;10322674;28;20050;-70
2024/01/22 08:22:23;;;;;;;3.28;2.38;;;;;;;-3.34;94.74;100613.44;10320444;28;20045;-69
2024/01/22 08:27:25;;;;;;;5.28;2.63;;;;;;;-3.29;94.41;100585.22;10302728;28;20054;-70
2024/01/22 08:32:28;;;;;;;5.80;2.72;;;;;;;-3.28;94.93;100597.63;10317876;28;20041;-69
2024/01/22 08:37:31;;;;;;;2.38;1.45;;;;;;;-3.27;94.54;100577.81;10308035;28;20050;-68
2024/01/22 08:42:33;;;;;;;0.65;0.65;;;;;;;-3.25;94.22;100556.97;10301580;28;20047;-76
2024/01/22 08:47:35;;;;;;;2.13;1.85;;;;;;;-3.22;93.81;100561.97;10317323;28;20049;-79
2024/01/22 08:52:38;;;;;;;1.60;1.20;;;;;;;-3.19;92.78;100542.78;10317517;28;20042;-75
2024/01/22 08:57:43;;;;;;;3.10;2.58;;;;;;;-3.20;93.78;100528.53;10323968;28;20046;-76
2024/01/22 09:02:45;;;;;;;0.93;0.90;;;;;;;-3.20;93.50;100525.84;10330080;28;20073;-70
2024/01/22 09:07:49;;;;;;;2.20;1.20;;;;;;;-3.20;92.70;100516.97;10324200;28;20054;-69
2024/01/22 09:12:51;;;;;;;3.10;2.08;;;;;;;-3.15;92.41;100509.16;10316892;28;20047;-75
2024/01/22 09:17:53;;;;;;;3.20;2.05;;;;;;;-3.17;91.81;100492.44;10335721;28;20498;-75
2024/01/22 09:22:56;;;;;;;1.25;1.05;;;;;;;-3.14;91.64;100487.50;10326712;28;20034;-75
2024/01/22 09:27:59;;;;;;;2.35;1.77;;;;;;;-3.14;91.92;100505.44;10324000;28;20039;-76
2024/01/22 09:33:03;;;;;;;3.95;2.00;;;;;;;-3.13;90.96;100491.00;10314991;28;20034;-70
2024/01/22 09:38:06;;;;;;;4.32;2.67;;;;;;;-3.14;91.29;100484.81;10330968;28;20430;-69
2024/01/22 09:43:08;;;;;;;1.92;1.05;;;;;;;-3.09;90.65;100485.06;10326929;28;20051;-68
2024/01/22 09:48:10;;;;;;;2.47;1.90;;;;;;;-3.06;89.69;100459.69;10323314;28;20105;-68
2024/01/22 09:53:14;;;;;;;3.03;1.67;;;;;;;-3.12;89.37;100442.53;10324910;28;20030;-68
2024/01/22 09:58:21;;;;;;;1.20;1.05;;;;;;;-3.07;89.42;100425.81;10322274;28;20054;-69
2024/01/22 10:03:25;;;;;;;8.32;2.83;;;;;;;-3.11;89.46;100411.97;10309358;28;20038;-69
2024/01/22 10:08:29;;;;;;;4.63;2.30;;;;;;;-3.10;89.38;100385.97;10323618;28;20054;-68
2024/01/22 10:13:47;;;;;;;6.70;2.53;;;;;;;-3.08;90.08;100359.75;10321504;28;20038;-67
2024/01/22 10:18:59;;;;;;;;;;;;;;;-3.05;88.23;100359.34;10323090;28;20069;-68
2024/01/22 10:24:04;;;;;;;7.00;2.78;;;;;;;-3.06;88.38;100341.59;10321462;28;19922;-69
2024/01/22 10:29:17;;;;;;;4.85;2.72;;;;;;;-3.06;89.41;100322.81;10322812;28;20046;-68
2024/01/22 10:34:20;;;;;;;2.58;1.88;;;;;;;-3.08;88.44;100320.31;10329647;28;20537;-68
2024/01/22 10:39:23;;;;;;;1.83;1.08;;;;;;;-3.08;88.23;100306.06;10285427;28;20041;-70
2024/01/22 10:44:25;;;;;;;5.32;2.92;;;;;;;-3.09;88.10;100293.69;10318207;28;20039;-70
2024/01/22 10:49:29;;;;;;;7.78;3.15;;;;;;;-3.12;88.01;100294.09;10306464;28;20043;-70
2024/01/22 10:54:32;;;;;;;2.03;1.77;;;;;;;-3.22;89.67;100273.00;10324166;28;20047;-70
2024/01/22 10:59:39;;;;;;;1.75;1.63;;;;;;;-3.22;89.05;100254.22;10325643;28;20572;-70
2024/01/22 11:04:46;;;;;;;4.45;2.55;;;;;;;-3.25;88.55;100256.47;10322073;28;20042;-70
2024/01/22 11:09:50;;;;;;;6.20;2.83;;;;;;;-3.28;88.29;100235.41;10323198;28;20042;-68
2024/01/22 11:14:53;;;;;;;5.43;4.20;;;;;;;-3.30;88.42;100205.25;10305658;28;20039;-71
2024/01/22 11:20:14;;;;;;;6.20;3.33;;;;;;;-3.31;88.98;100191.00;10305560;28;20039;-69
2024/01/22 11:25:16;;;;;;;5.25;3.33;;;;;;;-3.29;88.19;100180.94;10322053;28;20043;-68
2024/01/22 11:30:20;;;;;;;3.72;2.40;;;;;;;-3.26;89.80;100164.41;10329103;28;20054;-73
2024/01/22 11:35:33;;;;;;;7.10;3.45;;;;;;;-3.27;88.53;100140.47;10331501;28;20586;-73
2024/01/22 11:40:47;;;;;;;5.35;2.70;;;;;;;-3.29;89.50;100150.59;10312161;28;20034;-67
2024/01/22 11:45:53;;;;;;;3.83;2.67;;;;;;;-3.28;88.60;100130.78;10325777;28;20499;-68
2024/01/22 11:51:04;;;;;;;6.82;4.30;;;;;;;-3.26;88.31;100099.22;10601056;27;20132;-68
2024/01/22 11:56:07;;;;;;;8.30;4.50;;;;;;;-3.29;88.46;100084.34;10640978;28;20048;-69
2024/01/22 12:01:11;;;;;;;5.28;3.17;;;;;;;-3.32;88.75;100076.69;10625333;28;20118;-68
2024/01/22 12:06:13;;;;;;;9.05;3.78;;;;;;;-3.34;88.49;100049.25;10561366;28;20043;-68
2024/01/22 12:11:16;;;;;;;6.65;3.92;;;;;;;-3.42;89.91;100049.44;10571972;28;20379;-69
2024/01/22 12:16:19;;;;;;;8.45;3.95;;;;;;;-3.44;90.02;100043.47;10565836;28;20047;-68
2024/01/22 12:21:22;;;;;;;8.82;4.70;;;;;;;-3.44;90.63;100049.66;10565464;28;20610;-68
2024/01/22 12:26:25;;;;;;;8.50;4.93;;;;;;;-3.49;90.36;100036.00;10559871;28;20048;-71
2024/01/22 12:31:28;;;;;;;8.48;5.32;;;;;;;-3.52;90.52;100039.13;10555302;28;20051;-70
2024/01/22 12:36:31;;;;;;;12.55;6.43;;;;;;;-3.47;90.51;100025.94;10566032;28;20499;-71
2024/01/22 12:41:35;;;;;;;7.55;4.55;;;;;;;-3.50;90.14;100012.91;10576964;28;20040;-70
2024/01/22 12:46:37;;;;;;;7.95;3.63;;;;;;;-3.49;90.25;99987.75;10597734;28;20151;-68
2024/01/22 12:51:39;;;;;;;7.75;4.55;;;;;;;-3.50;90.49;99990.63;10595687;28;20040;-67
2024/01/22 12:56:42;;;;;;;11.30;5.78;;;;;;;-3.51;91.06;99952.25;10597433;28;20039;-66
2024/01/22 13:01:45;;;;;;;6.60;4.68;;;;;;;-3.47;91.63;99937.44;10572057;28;20067;-66
2024/01/22 13:06:47;;;;;;;6.53;3.85;;;;;;;-3.45;90.14;99923.81;10569795;28;20047;-68
2024/01/22 13:11:49;;;;;;;7.85;5.18;;;;;;;-3.42;89.29;99912.66;10568616;28;20503;-68
2024/01/22 13:16:52;;;;;;;8.10;4.95;;;;;;;-3.42;89.43;99909.97;10568079;28;20043;-68
2024/01/22 13:21:54;;;;;;;7.90;3.90;;;;;;;-3.43;88.14;99876.16;10566019;28;20422;-68
2024/01/22 13:26:57;;;;;;;11.15;5.13;;;;;;;-3.42;88.43;99850.97;10565030;28;20043;-68
2024/01/22 13:31:59;;;;;;;6.85;3.67;;;;;;;-3.41;88.01;99840.03;10564921;28;20079;-69
2024/01/22 13:37:03;;;;;;;7.20;4.47;;;;;;;-3.38;87.23;99810.09;10568798;28;20050;-67
2024/01/22 13:42:06;;;;;;;8.77;5.28;;;;;;;-3.34;86.45;99842.69;10567810;28;20043;-67
2024/01/22 13:47:09;;;;;;;9.02;4.70;;;;;;;-3.36;86.37;99789.25;10569348;28;20097;-69
2024/01/22 13:52:12;;;;;;;9.60;4.90;;;;;;;-3.34;86.70;99781.00;10547894;28;20044;-68
2024/01/22 13:57:16;;;;;;;7.30;5.05;;;;;;;-3.38;86.17;99767.19;10528507;28;20047;-68
2024/01/22 14:02:19;;;;;;;10.02;5.45;;;;;;;-3.39;85.85;99754.81;10527725;28;20048;-69
2024/01/22 14:07:22;;;;;;;9.32;5.05;;;;;;;-3.35;86.49;99729.22;10529085;28;20040;-69
2024/01/22 14:12:24;;;;;;;7.53;4.47;;;;;;;-3.38;86.13;99716.22;10527332;28;20044;-69
2024/01/22 14:17:26;;;;;;;8.23;4.03;;;;;;;-3.39;86.61;99697.66;10527733;28;20047;-69
2024/01/22 14:22:29;;;;;;;8.18;4.07;;;;;;;-3.41;87.06;99689.84;10530135;28;20055;-68
2024/01/22 14:27:31;;;;;;;6.30;3.75;;;;;;;-3.37;87.59;99679.50;10539614;28;20510;-68
2024/01/22 14:32:34;;;;;;;6.88;4.53;;;;;;;-3.35;87.46;99647.91;10542604;28;20514;-67
2024/01/22 14:37:37;;;;;;;6.35;3.72;;;;;;;-3.37;87.51;99620.50;10531450;28;20416;-68
2024/01/22 14:42:40;;;;;;;3.40;2.30;;;;;;;-3.40;87.98;99645.06;10538611;28;20040;-68
2024/01/22 14:47:43;;;;;;;7.85;3.25;;;;;;;-3.38;88.30;99611.63;10525087;28;20056;-69
2024/01/22 14:52:45;;;;;;;3.83;2.55;;;;;;;-3.38;88.05;99619.69;10539483;28;20035;-68
2024/01/22 14:57:47;;;;;;;4.65;2.58;;;;;;;-3.45;89.72;99589.41;10561360;28;20047;-70
2024/01/22 15:02:50;;;;;;;3.10;2.22;;;;;;;-3.45;90.36;99584.03;10562026;28;20032;-66
2024/01/22 15:07:53;;;;;;;3.35;1.88;;;;;;;-3.45;90.11;99553.72;10553730;28;20508;-69
2024/01/22 15:12:55;;;;;;;4.40;2.90;;;;;;;-3.43;90.80;99540.91;10564326;28;20048;-68
2024/01/22 15:17:57;;;;;;;1.88;1.60;;;;;;;-3.42;90.98;99537.19;10565222;28;20024;-65
2024/01/22 15:22:59;;;;;;;2.22;1.52;;;;;;;-3.41;91.70;99522.75;10568643;28;20044;-67
2024/01/22 15:28:02;;;;;;;4.43;2.38;;;;;;;-3.39;92.37;99529.53;10565966;28;20400;-66
2024/01/22 15:33:04;;;;;;;4.80;2.50;;;;;;;-3.36;92.55;99480.81;10569119;28;20438;-67
2024/01/22 15:38:07;;;;;;;4.90;2.40;;;;;;;-3.37;92.78;99476.50;10600672;28;20032;-68
2024/01/22 15:43:09;;;;;;;3.90;2.55;;;;;;;-3.33;93.11;99482.22;10565515;28;20044;-66
2024/01/22 15:48:11;;;;;;;5.53;1.63;;;;;;;-3.31;93.34;99464.06;10553951;28;20062;-67
2024/01/22 15:53:14;;;;;;;4.00;2.50;;;;;;;-3.27;93.07;99448.34;10555676;28;20047;-67
2024/01/22 15:58:16;;;;;;;2.33;1.42;;;;;;;-3.25;94.10;99467.75;10545396;28;20036;-72
2024/01/22 16:03:19;;;;;;;3.88;2.05;;;;;;;-3.26;94.16;99455.38;10563709;28;20048;-71
2024/01/22 16:08:21;;;;;;;3.83;2.13;;;;;;;-3.27;94.58;99430.41;10563141;28;20548;-70
2024/01/22 16:13:23;;;;;;;2.50;1.58;;;;;;;-3.26;94.55;99409.75;10564829;28;20048;-71
2024/01/22 16:18:26;;;;;;;3.78;1.90;;;;;;;-3.25;94.79;99409.53;10565062;28;20051;-72
2024/01/22 16:23:28;;;;;;;3.72;2.25;;;;;;;-3.22;94.72;99371.53;10567394;28;20055;-72
2024/01/22 16:28:31;;;;;;;3.22;1.80;;;;;;;-3.21;94.70;99377.72;10564033;28;20032;-68
2024/01/22 16:33:35;;;;;;;3.70;2.00;;;;;;;-3.16;94.49;99340.31;10563831;28;20069;-68
2024/01/22 16:38:39;;;;;;;1.55;1.38;;;;;;;-3.14;94.05;99316.75;10571448;28;20075;-68
2024/01/22 16:43:42;;;;;;;3.40;2.55;;;;;;;-3.13;93.73;99332.63;10564073;28;20036;-70
2024/01/22 16:48:45;;;;;;;3.90;1.88;;;;;;;-3.10;93.44;99300.00;10566334;28;20058;-66
2024/01/22 16:53:47;;;;;;;3.38;2.13;;;;;;;-3.09;93.98;99312.38;10552695;28;20451;-67
2024/01/22 16:58:50;;;;;;;2.42;1.95;;;;;;;-3.08;93.64;99271.06;10566008;28;20414;-67
2024/01/22 17:03:52;;;;;;;7.90;2.92;;;;;;;-3.09;94.81;99295.44;10570716;28;20051;-67
2024/01/22 17:08:55;;;;;;;4.97;2.38;;;;;;;-3.06;93.90;99300.38;10566551;28;20039;-68
2024/01/22 17:13:58;;;;;;;3.80;2.58;;;;;;;-3.04;94.33;99274.13;10561864;28;20047;-69
2024/01/22 17:19:00;;;;;;;2.92;1.52;;;;;;;-3.01;94.99;99265.59;10558977;28;20048;-71
2024/01/22 17:24:03;;;;;;;3.20;2.40;;;;;;;-3.05;95.29;99264.44;10566710;28;20036;-68
2024/01/22 17:29:05;;;;;;;3.60;2.25;;;;;;;-3.06;96.05;99246.69;10566533;28;20537;-67
2024/01/22 17:34:08;;;;;;;5.35;2.85;;;;;;;-3.09;97.18;99242.59;10558592;28;20036;-66
2024/01/22 17:39:11;;;;;;;2.97;1.65;;;;;;;-3.19;100.00;99241.50;10561772;28;20036;-68
2024/01/22 17:44:14;;;;;;;3.60;1.90;;;;;;;-3.27;100.00;99247.19;10558060;28;20047;-69
2024/01/22 17:49:16;;;;;;;4.95;2.70;;;;;;;-3.30;100.00;99235.03;10549204;28;20036;-69
2024/01/22 17:54:18;;;;;;;6.85;2.80;;;;;;;-3.31;100.00;99238.75;10568564;28;20058;-68
2024/01/22 17:59:21;;;;;;;5.90;3.15;;;;;;;-3.34;100.00;99221.25;10563091;28;20063;-69
2024/01/22 18:04:23;;;;;;;3.17;2.40;;;;;;;-3.33;100.00;99217.50;10557072;28;20043;-69
2024/01/22 18:09:25;;;;;;;3.80;2.20;;;;;;;-3.30;100.00;99207.38;10571035;28;20040;-70
2024/01/22 18:14:28;;;;;;;2.90;1.90;;;;;;;-3.25;100.00;99207.53;10563645;28;20055;-70
2024/01/22 18:19:31;;;;;;;4.65;2.83;;;;;;;-3.24;100.00;99196.59;10556226;28;20058;-69
2024/01/22 18:24:33;;;;;;;5.55;3.42;;;;;;;-3.19;100.00;99183.28;10569852;28;20035;-68
2024/01/22 18:29:35;;;;;;;5.78;3.10;;;;;;;-3.14;100.00;99183.41;10568375;28;20032;-68
2024/01/22 18:34:38;;;;;;;3.70;2.05;;;;;;;-3.09;100.00;99182.75;10565607;28;20054;-69
2024/01/22 18:39:40;;;;;;;4.75;3.65;;;;;;;-3.08;100.00;99189.75;10568063;28;20040;-68
2024/01/22 18:44:42;;;;;;;5.63;2.10;;;;;;;-3.05;100.00;99191.97;10547815;28;20039;-68
2024/01/22 18:49:46;;;;;;;4.65;3.30;;;;;;;-3.01;100.00;99189.66;10551377;28;20044;-68
2024/01/22 18:54:49;;;;;;;7.40;5.40;;;;;;;-2.99;100.00;99174.16;10569320;28;20032;-68
2024/01/22 18:59:52;;;;;;;6.15;3.83;;;;;;;-2.99;100.00;99164.22;10565569;28;20032;-68
2024/01/22 19:04:55;;;;;;;7.68;4.68;;;;;;;-2.94;100.00;99153.66;10556075;28;20036;-66
2024/01/22 19:09:58;;;;;;;7.07;5.25;;;;;;;-2.93;100.00;99143.72;10564647;28;20419;-67
2024/01/22 19:15:00;;;;;;;8.13;5.07;;;;;;;-2.91;100.00;99152.38;10548297;28;20047;-66
2024/01/22 19:20:05;;;;;;;7.60;5.20;;;;;;;-2.89;100.00;99139.53;10548280;28;20809;-65
2024/01/22 19:25:08;;;;;;;7.75;4.65;;;;;;;-2.86;100.00;99152.47;10553211;28;20038;-66
2024/01/22 19:30:11;;;;;;;10.00;5.32;;;;;;;-2.80;100.00;99141.63;10563985;28;20051;-66
2024/01/22 19:35:15;;;;;;;6.78;5.13;;;;;;;-2.78;100.00;99141.41;10564443;28;20558;-66
2024/01/22 19:40:18;;;;;;;10.35;5.97;;;;;;;-2.79;100.00;99135.22;10563418;28;20463;-65
2024/01/22 19:45:21;;;;;;;8.68;5.15;;;;;;;-2.78;100.00;99130.66;10563099;28;20043;-65
2024/01/22 19:50:26;;;;;;;8.77;5.68;;;;;;;-2.76;100.00;99125.91;10560061;28;20059;-68
2024/01/22 19:55:29;;;;;;;7.35;5.25;;;;;;;-2.70;100.00;99118.78;10543139;28;20047;-66
2024/01/22 20:00:32;;;;;;;8.73;5.78;;;;;;;-2.69;100.00;99109.66;10559481;28;20459;-63
2024/01/22 20:05:35;;;;;;;8.95;4.97;;;;;;;-2.65;100.00;99108.16;10561238;28;20185;-65
2024/01/22 20:10:37;;;;;;;5.57;4.07;;;;;;;-2.60;100.00;99106.41;10536388;28;20525;-66
2024/01/22 20:15:39;;;;;;;7.15;4.10;;;;;;;-2.57;100.00;99099.75;10571975;28;20422;-66
2024/01/22 20:20:42;;;;;;;3.72;3.15;;;;;;;-2.54;100.00;99085.88;10574214;28;20542;-67
2024/01/22 20:25:45;;;;;;;5.90;4.20;;;;;;;-2.50;100.00;99082.47;10573381;28;20043;-64
2024/01/22 20:30:48;;;;;;;5.95;3.90;;;;;;;-2.42;100.00;99075.94;10574960;28;20047;-67
2024/01/22 20:35:51;;;;;;;7.47;4.47;;;;;;;-2.40;100.00;99079.19;10550687;28;20040;-66
2024/01/22 20:40:54;;;;;;;7.13;3.53;;;;;;;-2.36;100.00;99053.50;10574283;28;20040;-65
2024/01/22 20:45:57;;;;;;;7.90;4.13;;;;;;;-2.28;100.00;99046.94;10573765;28;20047;-65
2024/01/22 20:51:01;;;;;;;4.47;3.60;;;;;;;-2.20;100.00;99047.41;10572762;28;20044;-67
2024/01/22 20:56:19;;;;;;;6.15;4.00;;;;;;;-2.09;100.00;99045.72;10406040;28;20046;-73
2024/01/22 21:01:21;;;;;;;8.35;4.20;;;;;;;-2.03;100.00;99038.59;10388038;28;20126;-73
2024/01/22 21:06:24;;;;;;;5.35;3.50;;;;;;;-1.94;100.00;99026.38;10404300;28;20042;-73
2024/01/22 21:11:26;;;;;;;5.50;3.58;;;;;;;-1.92;100.00;99043.09;10403797;28;20049;-73
2024/01/22 21:16:28;;;;;;;6.53;4.05;;;;;;;-1.83;100.00;99044.34;10382298;28;20053;-73
2024/01/22 21:21:31;;;;;;;4.95;2.85;;;;;;;-1.78;100.00;99035.56;10377698;28;20030;-73
2024/01/22 21:26:33;;;;;;;4.78;3.08;;;;;;;-1.76;100.00;99036.13;10396464;28;20042;-74
2024/01/22 21:31:35;;;;;;;6.60;3.55;;;;;;;-1.73;100.00;99025.75;10386869;28;20061;-72
2024/01/22 21:36:38;;;;;;;4.90;3.58;;;;;;;-1.74;100.00;99015.19;10400655;28;20721;-73
2024/01/22 21:41:41;;;;;;;4.38;3.08;;;;;;;-1.73;100.00;99015.00;10392488;28;20506;-72
2024/01/22 21:46:45;;;;;;;5.55;3.80;;;;;;;-1.68;100.00;99035.78;10379205;28;20046;-72
2024/01/22 21:51:47;;;;;;;6.00;3.42;;;;;;;-1.65;100.00;99030.72;10404576;28;20509;-71
2024/01/22 21:56:49;;;;;;;8.20;3.88;;;;;;;-1.59;100.00;99043.19;10401742;28;20398;-75
2024/01/22 22:01:52;;;;;;;6.28;4.00;;;;;;;-1.54;100.00;99039.81;10398340;28;20037;-71
2024/01/22 22:06:54;;;;;;;6.85;4.00;;;;;;;-1.47;100.00;99050.41;10399817;28;20049;-71
2024/01/22 22:11:57;;;;;;;6.38;3.65;;;;;;;-1.45;100.00;99053.66;10399732;28;20030;-74
2024/01/22 22:16:59;;;;;;;5.57;4.05;;;;;;;-1.36;100.00;99052.22;10403516;28;20080;-74
2024/01/22 22:22:01;;;;;;;5.32;3.80;;;;;;;-1.28;100.00;99044.56;10385175;28;20041;-73
2024/01/22 22:27:04;;;;;;;3.78;2.50;;;;;;;-1.20;100.00;99032.59;10364637;28;20054;-75
2024/01/22 22:32:06;;;;;;;6.05;3.72;;;;;;;-1.23;100.00;99027.66;10385085;28;20060;-75
2024/01/22 22:37:09;;;;;;;4.50;3.08;;;;;;;-1.21;100.00;99030.97;10396311;28;20044;-75
2024/01/22 22:42:11;;;;;;;6.07;4.20;;;;;;;-1.17;100.00;99024.03;10405265;28;20068;-74
2024/01/22 22:47:13;;;;;;;5.50;3.50;;;;;;;-1.13;100.00;99037.81;10404578;28;20112;-74
2024/01/22 22:52:17;;;;;;;4.93;3.35;;;;;;;-1.08;100.00;99030.63;10386515;28;20053;-75
2024/01/22 22:57:19;;;;;;;7.22;4.47;;;;;;;-1.01;99.95;99028.59;10373609;28;20042;-76
2024/01/22 23:02:22;;;;;;;4.15;3.70;;;;;;;-0.96;99.58;99031.34;10379153;28;20042;-75
2024/01/22 23:07:24;;;;;;;7.18;3.35;;;;;;;-0.92;98.93;99027.09;10398965;28;20056;-74
2024/01/22 23:12:27;;;;;;;7.18;4.05;;;;;;;-0.84;98.91;99033.97;10415348;28;20412;-74
2024/01/22 23:17:30;;;;;;;5.10;3.08;;;;;;;-0.82;98.68;99048.00;10386376;28;20049;-75